Time;durP1;ratioP1;P1;durP2;ratioP2;P2;SDS_P1;SDS_P2;PMS_P1;PMS_P2;Temp;Humidity;BMP_temperature;BMP_pressure;BME280_temperature;BME280_humidity;BME280_pressure;Samples;Min_cycle;Max_cycle;Signal;HPM_P1;HPM_P2
2021/12/24 00:01:46;;;;;;;6.00;5.07;;;13.00;80.10;;;;;;10495134;28;20071;-73
2021/12/24 00:06:48;;;;;;;5.40;4.45;;;13.00;80.20;;;;;;10494699;28;20055;-72
2021/12/24 00:11:49;;;;;;;5.22;4.38;;;13.10;80.20;;;;;;10494700;28;20052;-73
2021/12/24 00:16:54;;;;;;;4.65;4.00;;;13.00;80.30;;;;;;10493994;28;20493;-72
2021/12/24 00:22:23;;;;;;;5.63;4.30;;;13.10;80.20;;;;;;10501429;28;20052;-71
2021/12/24 00:38:03;;;;;;;4.43;3.70;;;13.10;80.50;;;;;;10501860;28;20056;-73
2021/12/24 00:43:05;;;;;;;5.55;4.50;;;13.10;80.40;;;;;;10502041;28;20044;-73
2021/12/24 00:48:06;;;;;;;5.00;4.15;;;13.10;80.50;;;;;;10501169;28;20094;-74
2021/12/24 00:55:02;;;;;;;5.18;4.35;;;13.10;80.40;;;;;;10501387;28;20448;-73
2021/12/24 00:58:29;;;;;;;4.15;3.75;;;13.00;80.50;;;;;;10500960;28;20463;-73
2021/12/24 01:03:31;;;;;;;4.45;3.80;;;13.10;80.50;;;;;;10500730;28;20508;-73
2021/12/24 01:08:32;;;;;;;4.20;3.70;;;13.10;80.60;;;;;;10500744;28;20045;-73
2021/12/24 01:13:33;;;;;;;4.97;4.18;;;13.10;80.60;;;;;;10500370;28;20048;-72
2021/12/24 01:18:44;;;;;;;4.25;3.72;;;13.10;80.60;;;;;;10500362;28;20071;-73
2021/12/24 01:23:49;;;;;;;4.43;3.65;;;13.10;80.70;;;;;;10500279;28;20124;-73
2021/12/24 01:29:18;;;;;;;4.00;3.33;;;13.10;80.60;;;;;;10500033;28;20040;-72
2021/12/24 01:39:52;;;;;;;3.78;3.40;;;13.10;80.70;;;;;;10499622;28;20052;-73
2021/12/24 01:44:54;;;;;;;3.83;3.42;;;13.10;80.80;;;;;;10499339;28;20045;-72
2021/12/24 01:49:55;;;;;;;3.50;3.20;;;13.20;80.80;;;;;;10498938;28;20047;-72
2021/12/24 01:54:57;;;;;;;2.72;2.50;;;13.10;80.80;;;;;;10498982;28;20452;-73
2021/12/24 01:59:58;;;;;;;3.67;3.10;;;13.20;80.80;;;;;;10498733;28;20432;-72
2021/12/24 02:05:00;;;;;;;2.95;2.67;;;13.10;80.90;;;;;;10498553;28;20052;-72
2021/12/24 02:10:01;;;;;;;3.38;2.83;;;13.20;80.90;;;;;;10498533;28;20500;-73
2021/12/24 02:15:04;;;;;;;2.92;2.58;;;13.20;81.00;;;;;;10498030;28;20520;-72
2021/12/24 02:30:43;;;;;;;2.72;2.50;;;13.20;81.00;;;;;;10497788;28;20028;-72
2021/12/24 02:35:45;;;;;;;3.15;2.60;;;13.20;81.00;;;;;;10497269;28;20048;-73
2021/12/24 02:40:46;;;;;;;2.65;2.40;;;13.20;81.10;;;;;;10496664;28;20048;-72
2021/12/24 02:45:49;;;;;;;2.22;2.03;;;13.20;81.10;;;;;;10497190;28;20389;-72
2021/12/24 02:56:10;;;;;;;2.40;2.20;;;13.20;81.10;;;;;;10475182;28;20493;-72
2021/12/24 03:01:11;;;;;;;2.33;1.92;;;13.20;81.20;;;;;;10496147;28;20052;-73
2021/12/24 03:06:13;;;;;;;2.20;2.00;;;13.20;81.20;;;;;;10496595;28;20048;-73
2021/12/24 03:11:14;;;;;;;1.85;1.70;;;13.20;81.10;;;;;;10496421;28;20059;-73
2021/12/24 03:16:16;;;;;;;1.73;1.63;;;13.20;81.30;;;;;;10495535;28;20060;-73
2021/12/24 03:21:21;;;;;;;2.00;1.80;;;13.20;81.20;;;;;;10495791;28;20048;-72
2021/12/24 03:26:22;;;;;;;2.08;1.88;;;13.20;81.40;;;;;;10495682;28;20048;-73
2021/12/24 03:31:24;;;;;;;1.90;1.63;;;13.20;81.30;;;;;;10496157;28;20064;-73
2021/12/24 03:36:26;;;;;;;1.45;1.35;;;13.20;81.40;;;;;;10495493;28;20520;-73
2021/12/24 03:41:27;;;;;;;1.42;1.33;;;13.20;81.40;;;;;;10495193;28;20516;-73
2021/12/24 03:46:36;;;;;;;1.50;1.40;;;13.20;81.40;;;;;;10495114;28;20044;-71
2021/12/24 03:51:46;;;;;;;1.60;1.50;;;13.20;81.50;;;;;;10494992;28;20051;-73
2021/12/24 03:56:47;;;;;;;1.65;1.55;;;13.20;81.40;;;;;;10502281;28;20056;-73
2021/12/24 04:01:49;;;;;;;1.58;1.30;;;13.20;81.60;;;;;;10502994;28;20060;-73
2021/12/24 04:06:50;;;;;;;1.70;1.60;;;13.20;81.60;;;;;;10503579;28;20044;-73
2021/12/24 04:11:52;;;;;;;1.60;1.50;;;13.20;81.70;;;;;;10503118;28;20055;-73
2021/12/24 04:16:53;;;;;;;1.30;1.20;;;13.20;81.70;;;;;;10502396;28;20114;-73
2021/12/24 04:27:13;;;;;;;1.23;1.13;;;13.20;81.70;;;;;;10502465;28;20051;-73
2021/12/24 04:32:18;;;;;;;1.23;1.13;;;13.30;81.70;;;;;;10502152;28;20040;-73
2021/12/24 05:03:51;;;;;;;1.50;1.20;;;13.30;82.10;;;;;;10500495;28;20045;-73
2021/12/24 05:08:55;;;;;;;1.25;1.08;;;13.30;82.00;;;;;;10500798;28;20052;-73
2021/12/24 05:13:56;;;;;;;1.20;1.10;;;13.30;82.20;;;;;;10500558;28;20056;-74
2021/12/24 05:24:19;;;;;;;1.20;1.00;;;13.30;82.30;;;;;;10482557;28;20416;-71
2021/12/24 05:29:21;;;;;;;1.30;1.17;;;13.30;82.30;;;;;;10500423;28;20044;-72
2021/12/24 05:34:22;;;;;;;1.35;1.23;;;13.30;82.20;;;;;;10499819;28;20068;-73
2021/12/24 05:39:24;;;;;;;1.58;1.33;;;13.30;82.40;;;;;;10499443;28;20063;-72
2021/12/24 05:44:25;;;;;;;2.15;1.60;;;13.30;82.30;;;;;;10499309;28;20448;-73
2021/12/24 05:49:27;;;;;;;1.50;1.10;;;13.30;82.50;;;;;;10498970;28;20626;-73
2021/12/24 05:54:28;;;;;;;1.52;1.30;;;13.30;82.50;;;;;;10499051;28;20532;-75
2021/12/24 05:59:30;;;;;;;1.83;1.38;;;13.30;82.60;;;;;;10499177;28;20154;-73
2021/12/24 06:04:31;;;;;;;1.65;1.10;;;13.30;82.70;;;;;;10498491;28;20496;-73
2021/12/24 06:09:33;;;;;;;1.75;1.50;;;13.30;82.60;;;;;;10498400;28;20044;-73
2021/12/24 06:14:34;;;;;;;1.40;1.20;;;13.30;82.80;;;;;;10498221;28;20053;-73
2021/12/24 06:19:36;;;;;;;1.40;1.30;;;13.30;82.80;;;;;;10496944;28;20049;-73
2021/12/24 06:24:37;;;;;;;2.03;1.35;;;13.30;82.80;;;;;;10497926;28;20052;-74
2021/12/24 06:29:39;;;;;;;1.13;1.02;;;13.30;83.00;;;;;;10497285;28;20468;-72
2021/12/24 06:34:40;;;;;;;2.00;1.50;;;13.30;82.90;;;;;;10497524;28;20102;-73
2021/12/24 06:39:42;;;;;;;2.03;1.52;;;13.30;83.10;;;;;;10497178;28;20055;-73
2021/12/24 06:44:43;;;;;;;1.98;1.55;;;13.40;83.20;;;;;;10497023;28;20045;-72
2021/12/24 06:49:45;;;;;;;2.13;1.50;;;13.30;83.10;;;;;;10496861;28;20052;-73
2021/12/24 06:54:46;;;;;;;2.03;1.27;;;13.30;83.30;;;;;;10496443;28;20052;-73
2021/12/24 06:59:48;;;;;;;2.40;1.60;;;13.40;83.20;;;;;;10496686;28;20048;-73
2021/12/24 07:04:49;;;;;;;2.10;1.50;;;13.30;83.40;;;;;;10496077;28;20068;-72
2021/12/24 07:09:50;;;;;;;1.75;1.52;;;13.40;83.40;;;;;;10495977;28;20044;-72
2021/12/24 07:14:52;;;;;;;2.13;1.50;;;13.30;83.40;;;;;;10495907;28;20055;-72
2021/12/24 07:19:53;;;;;;;2.42;1.58;;;13.40;83.60;;;;;;10495250;28;20508;-72
2021/12/24 07:24:55;;;;;;;2.25;1.52;;;13.40;83.50;;;;;;10495550;28;20501;-72
2021/12/24 07:29:56;;;;;;;3.03;1.70;;;13.40;83.70;;;;;;10495440;28;20513;-72
2021/12/24 07:34:58;;;;;;;2.03;1.20;;;13.40;83.60;;;;;;10495385;28;20048;-72
2021/12/24 07:40:02;;;;;;;2.38;1.40;;;13.40;83.60;;;;;;10495251;28;20044;-72
2021/12/24 07:45:03;;;;;;;1.63;1.30;;;13.40;83.80;;;;;;10495070;28;20079;-72
2021/12/24 07:50:16;;;;;;;2.67;1.67;;;13.40;83.70;;;;;;10495144;28;20049;-72
2021/12/24 07:55:18;;;;;;;1.92;1.00;;;13.40;83.90;;;;;;10495114;28;20127;-72
2021/12/24 08:00:22;;;;;;;2.47;1.17;;;13.40;83.90;;;;;;10495110;28;20057;-72
2021/12/24 08:05:25;;;;;;;2.33;1.45;;;13.40;83.80;;;;;;10494669;28;20504;-72
2021/12/24 08:10:27;;;;;;;2.20;1.40;;;13.40;84.00;;;;;;10494942;28;20105;-72
2021/12/24 08:15:28;;;;;;;1.70;1.10;;;13.40;83.90;;;;;;10494489;28;20475;-73
2021/12/24 08:20:30;;;;;;;3.15;1.20;;;13.40;83.90;;;;;;10494079;28;20417;-72
2021/12/24 08:25:31;;;;;;;2.15;1.13;;;13.40;84.10;;;;;;10494783;28;20045;-72
2021/12/24 08:30:33;;;;;;;1.75;1.10;;;13.40;83.90;;;;;;10494122;28;20048;-72
2021/12/24 08:35:34;;;;;;;1.25;0.90;;;13.40;84.10;;;;;;10494179;28;20386;-72
2021/12/24 08:40:36;;;;;;;1.25;1.00;;;13.40;84.00;;;;;;10496908;28;20052;-72
2021/12/24 08:45:37;;;;;;;1.95;1.05;;;13.40;83.90;;;;;;10502116;28;20049;-72
2021/12/24 08:50:39;;;;;;;1.27;0.98;;;13.40;84.10;;;;;;10501228;28;20045;-72
2021/12/24 08:55:40;;;;;;;1.75;1.10;;;13.40;84.10;;;;;;10501242;28;20056;-72
2021/12/24 09:00:42;;;;;;;1.10;0.90;;;13.40;84.00;;;;;;10501455;28;20040;-72
2021/12/24 09:05:43;;;;;;;1.58;0.80;;;13.40;84.10;;;;;;10500950;28;20056;-71
2021/12/24 09:10:45;;;;;;;1.42;1.00;;;13.40;84.00;;;;;;10500627;28;20041;-72
2021/12/24 09:15:46;;;;;;;1.00;0.70;;;13.40;84.10;;;;;;10500374;28;20098;-71
2021/12/24 09:20:48;;;;;;;0.60;0.60;;;13.40;84.10;;;;;;10500073;28;20048;-71
2021/12/24 09:25:49;;;;;;;1.20;0.73;;;13.40;84.00;;;;;;10500497;28;20075;-71
2021/12/24 09:30:51;;;;;;;1.30;0.90;;;13.40;84.10;;;;;;10500144;28;20041;-72
2021/12/24 09:35:52;;;;;;;0.73;0.55;;;13.40;84.00;;;;;;10499785;28;20056;-71
2021/12/24 09:40:54;;;;;;;0.77;0.68;;;13.40;83.90;;;;;;10499676;28;20048;-72
2021/12/24 09:45:55;;;;;;;0.95;0.60;;;13.40;84.10;;;;;;10498937;28;20052;-72
2021/12/24 09:50:57;;;;;;;1.30;0.70;;;13.40;84.00;;;;;;10498482;28;20049;-72
2021/12/24 09:55:58;;;;;;;0.73;0.70;;;13.40;84.00;;;;;;10499026;28;20045;-72
2021/12/24 10:01:00;;;;;;;0.57;0.50;;;13.40;84.10;;;;;;10498955;28;20044;-71
2021/12/24 10:06:02;;;;;;;0.93;0.50;;;13.40;84.00;;;;;;10498544;28;20048;-72
2021/12/24 10:11:03;;;;;;;0.73;0.50;;;13.40;84.70;;;;;;10498060;28;20401;-72
2021/12/24 10:16:05;;;;;;;0.70;0.50;;;13.40;84.00;;;;;;10498042;28;20071;-72
2021/12/24 10:21:06;;;;;;;1.25;0.80;;;13.40;84.00;;;;;;10498254;28;20052;-72
2021/12/24 10:26:08;;;;;;;0.60;0.50;;;13.40;84.10;;;;;;10497979;28;20045;-72
2021/12/24 10:31:09;;;;;;;0.80;0.60;;;13.40;84.00;;;;;;10497752;28;20052;-72
2021/12/24 10:36:12;;;;;;;0.70;0.60;;;13.40;84.00;;;;;;10497571;28;20050;-72
2021/12/24 10:41:13;;;;;;;0.70;0.60;;;13.40;84.10;;;;;;10497271;28;20136;-72
2021/12/24 10:46:15;;;;;;;0.60;0.60;;;13.40;84.00;;;;;;10496543;28;20056;-72
2021/12/24 10:51:41;;;;;;;0.55;0.47;;;13.40;84.10;;;;;;10496765;28;20052;-72
2021/12/24 10:56:41;;;;;;;0.68;0.50;;;13.40;84.10;;;;;;10496262;28;20078;-72
2021/12/24 11:01:42;;;;;;;0.45;0.45;;;13.40;84.00;;;;;;10496045;28;20041;-72
2021/12/24 11:06:44;;;;;;;0.60;0.60;;;13.40;84.20;;;;;;10496187;28;20047;-72
2021/12/24 11:11:47;;;;;;;0.57;0.50;;;13.40;84.00;;;;;;10495935;28;20059;-72
2021/12/24 11:16:48;;;;;;;0.55;0.50;;;13.40;84.00;;;;;;10495702;28;20041;-72
2021/12/24 11:21:50;;;;;;;0.60;0.50;;;13.40;84.10;;;;;;10495808;28;20052;-72
2021/12/24 11:26:52;;;;;;;0.52;0.50;;;13.40;84.00;;;;;;10495776;28;20049;-73
2021/12/24 11:31:54;;;;;;;0.55;0.50;;;13.40;84.10;;;;;;10495448;28;20068;-71
2021/12/24 11:36:55;;;;;;;0.50;0.43;;;13.40;84.10;;;;;;10495407;28;20408;-72
2021/12/24 11:41:57;;;;;;;0.60;0.52;;;13.30;84.00;;;;;;10495280;28;20543;-72
2021/12/24 11:46:58;;;;;;;0.50;0.40;;;13.30;84.10;;;;;;10494859;28;20401;-72
2021/12/24 11:52:00;;;;;;;0.70;0.50;;;13.40;84.10;;;;;;10495099;28;20516;-72
2021/12/24 11:57:01;;;;;;;0.43;0.40;;;13.40;84.60;;;;;;10494628;28;20413;-72
2021/12/24 12:02:03;;;;;;;0.70;0.52;;;13.40;84.10;;;;;;10494540;28;20533;-71
2021/12/24 12:07:04;;;;;;;0.50;0.50;;;13.40;84.00;;;;;;10494661;28;20540;-72
2021/12/24 12:12:06;;;;;;;0.50;0.40;;;13.40;84.10;;;;;;10494439;28;20091;-72
2021/12/24 12:17:07;;;;;;;0.80;0.50;;;13.40;84.10;;;;;;10500108;28;20056;-72
2021/12/24 12:22:14;;;;;;;0.75;0.45;;;13.40;84.00;;;;;;10502481;28;20077;-72
2021/12/24 12:27:15;;;;;;;0.50;0.40;;;13.40;84.10;;;;;;10502487;28;20046;-72
2021/12/24 12:32:17;;;;;;;0.57;0.43;;;13.40;84.10;;;;;;10502470;28;20516;-73
2021/12/24 12:37:18;;;;;;;0.75;0.50;;;13.30;84.00;;;;;;10501948;28;20044;-73
2021/12/24 12:42:20;;;;;;;0.60;0.40;;;13.40;84.10;;;;;;10502061;28;20132;-73
2021/12/24 12:47:21;;;;;;;0.60;0.50;;;13.40;84.10;;;;;;10501234;28;20520;-73
2021/12/24 12:52:24;;;;;;;0.70;0.60;;;13.40;84.20;;;;;;10501766;28;20052;-73
2021/12/24 12:57:25;;;;;;;0.73;0.50;;;13.40;84.10;;;;;;10501251;28;20413;-71
2021/12/24 13:02:27;;;;;;;0.57;0.50;;;13.40;84.00;;;;;;10501230;28;20098;-73
2021/12/24 13:07:28;;;;;;;0.82;0.50;;;13.40;84.20;;;;;;10501054;28;20060;-73
2021/12/24 13:12:30;;;;;;;0.40;0.30;;;13.40;84.10;;;;;;10500601;28;20052;-73
2021/12/24 13:17:31;;;;;;;0.55;0.50;;;13.40;84.10;;;;;;10500451;28;20060;-73
2021/12/24 13:22:36;;;;;;;0.50;0.50;;;13.40;84.20;;;;;;10500255;28;20069;-73
2021/12/24 13:27:39;;;;;;;0.52;0.50;;;13.40;84.10;;;;;;10500333;28;20052;-72
2021/12/24 13:32:40;;;;;;;0.68;0.50;;;13.40;84.20;;;;;;10500008;28;20136;-72
2021/12/24 13:37:45;;;;;;;0.57;0.43;;;13.40;84.20;;;;;;10499731;28;20060;-73
2021/12/24 13:42:47;;;;;;;0.65;0.50;;;13.40;84.10;;;;;;10499630;28;20052;-73
2021/12/24 13:47:58;;;;;;;0.63;0.47;;;13.40;84.20;;;;;;10499149;28;20044;-73
2021/12/24 13:58:18;;;;;;;0.40;0.32;;;13.40;84.10;;;;;;10499009;28;20040;-72
2021/12/24 14:03:19;;;;;;;0.43;0.43;;;13.40;84.20;;;;;;10498707;28;20049;-73
2021/12/24 14:08:21;;;;;;;0.73;0.60;;;13.40;84.20;;;;;;10498454;28;20059;-73
2021/12/24 14:13:26;;;;;;;0.70;0.60;;;13.40;84.30;;;;;;10498434;28;20458;-72
2021/12/24 14:18:42;;;;;;;0.70;0.60;;;13.40;84.30;;;;;;10497705;28;20135;-73
2021/12/24 14:23:43;;;;;;;0.77;0.52;;;13.40;84.20;;;;;;10497827;28;20383;-73
2021/12/24 14:28:45;;;;;;;0.60;0.50;;;13.40;84.30;;;;;;10497590;28;20059;-73
2021/12/24 14:33:46;;;;;;;0.43;0.40;;;13.40;84.30;;;;;;10497501;28;20049;-72
2021/12/24 14:38:48;;;;;;;0.90;0.60;;;13.40;84.30;;;;;;10496654;28;20059;-73
2021/12/24 14:43:50;;;;;;;0.52;0.50;;;13.30;84.30;;;;;;10497078;28;20056;-73
2021/12/24 14:48:52;;;;;;;0.68;0.60;;;13.40;84.30;;;;;;10506345;28;20128;-72
2021/12/24 14:53:54;;;;;;;0.75;0.73;;;13.30;84.30;;;;;;10533053;28;20040;-74
2021/12/24 14:58:55;;;;;;;0.63;0.50;;;13.40;84.40;;;;;;10522697;28;20067;-74
2021/12/24 15:03:57;;;;;;;1.05;0.80;;;13.40;84.40;;;;;;10536693;28;20051;-74
2021/12/24 15:08:58;;;;;;;1.38;0.45;;;13.30;84.50;;;;;;10537996;28;20040;-74
2021/12/24 15:14:01;;;;;;;1.30;0.40;;;13.40;84.50;;;;;;10537972;28;20044;-74
2021/12/24 15:19:02;;;;;;;1.73;0.57;;;13.30;84.50;;;;;;10537566;28;20131;-73
2021/12/24 15:24:03;;;;;;;1.00;0.75;;;13.30;84.60;;;;;;10537868;28;20055;-73
2021/12/24 15:29:07;;;;;;;1.17;0.70;;;13.40;84.60;;;;;;10537472;28;20044;-73
2021/12/24 15:34:08;;;;;;;0.80;0.70;;;13.30;84.60;;;;;;10537516;28;20511;-73
2021/12/24 15:39:10;;;;;;;0.50;0.50;;;13.30;84.60;;;;;;10537110;28;20496;-73
2021/12/24 15:44:13;;;;;;;0.80;0.50;;;13.30;84.50;;;;;;10537194;28;20421;-74
2021/12/24 15:49:14;;;;;;;0.98;0.60;;;13.30;84.70;;;;;;10535878;28;20126;-73
2021/12/24 15:54:16;;;;;;;0.88;0.65;;;13.30;84.60;;;;;;10536869;28;20093;-74
2021/12/24 15:59:17;;;;;;;0.77;0.55;;;13.30;84.50;;;;;;10528837;28;20436;-73
2021/12/24 16:04:19;;;;;;;0.70;0.50;;;13.30;84.60;;;;;;10494987;28;20516;-74
2021/12/24 16:09:21;;;;;;;0.95;0.52;;;13.30;84.50;;;;;;10494653;28;20090;-73
2021/12/24 16:14:23;;;;;;;0.95;0.65;;;13.30;84.60;;;;;;10494656;28;20087;-74
2021/12/24 16:19:24;;;;;;;1.20;0.60;;;13.30;85.10;;;;;;10494211;28;20064;-74
2021/12/24 16:24:26;;;;;;;1.00;0.73;;;13.30;84.50;;;;;;10495002;28;20098;-73
2021/12/24 16:29:27;;;;;;;1.13;0.70;;;13.30;84.60;;;;;;10494624;28;20044;-73
2021/12/24 16:34:29;;;;;;;0.80;0.80;;;13.30;84.50;;;;;;10494394;28;20044;-74
2021/12/24 16:39:30;;;;;;;1.00;0.80;;;13.30;84.40;;;;;;10494380;28;20052;-74
2021/12/24 16:44:32;;;;;;;1.13;0.85;;;13.30;84.50;;;;;;10494150;28;20045;-74
2021/12/24 16:49:33;;;;;;;2.20;1.38;;;13.30;84.40;;;;;;10493999;28;20048;-73
2021/12/24 16:54:35;;;;;;;1.33;0.80;;;13.30;84.40;;;;;;10494055;28;20051;-73
2021/12/24 16:59:40;;;;;;;1.40;0.90;;;13.30;84.40;;;;;;10493725;28;20049;-74
2021/12/24 17:04:41;;;;;;;1.60;1.20;;;13.30;84.40;;;;;;10501238;28;20052;-74
2021/12/24 17:09:43;;;;;;;1.20;1.00;;;13.30;84.40;;;;;;10501469;28;20048;-74
2021/12/24 17:14:45;;;;;;;1.73;1.30;;;13.30;84.30;;;;;;10500558;28;20139;-73
2021/12/24 17:19:46;;;;;;;1.52;0.90;;;13.20;84.20;;;;;;10500250;28;20140;-73
2021/12/24 17:24:47;;;;;;;1.92;0.90;;;13.30;84.30;;;;;;10500551;28;20048;-74
2021/12/24 17:29:49;;;;;;;1.33;1.08;;;13.20;84.10;;;;;;10500604;28;20044;-73
2021/12/24 17:34:50;;;;;;;1.83;0.90;;;13.20;84.10;;;;;;10500057;28;20174;-73
2021/12/24 17:39:52;;;;;;;1.10;0.90;;;13.20;84.00;;;;;;10499989;28;20056;-73
2021/12/24 17:44:53;;;;;;;1.75;1.00;;;13.20;84.00;;;;;;10499602;28;20413;-73
2021/12/24 17:49:55;;;;;;;1.50;1.10;;;13.20;84.00;;;;;;10499216;28;20529;-74
2021/12/24 17:54:56;;;;;;;2.17;1.20;;;13.20;84.00;;;;;;10499260;28;20048;-73
2021/12/24 17:59:58;;;;;;;0.90;0.82;;;13.20;84.00;;;;;;10498707;28;20421;-73
2021/12/24 18:04:59;;;;;;;2.78;1.08;;;13.20;83.90;;;;;;10498870;28;20071;-73
2021/12/24 18:10:01;;;;;;;1.20;1.00;;;13.20;83.90;;;;;;10498409;28;20051;-73
2021/12/24 18:15:03;;;;;;;1.17;0.90;;;13.20;83.90;;;;;;10497659;28;20063;-74
2021/12/24 18:20:05;;;;;;;1.35;1.00;;;13.20;83.90;;;;;;10497651;28;20551;-73
2021/12/24 18:25:07;;;;;;;1.38;1.00;;;13.20;83.90;;;;;;10498224;28;20048;-73
2021/12/24 18:30:09;;;;;;;1.23;0.95;;;13.20;83.90;;;;;;10498071;28;20422;-73
2021/12/24 18:35:10;;;;;;;1.30;0.90;;;13.20;83.80;;;;;;10497494;28;20045;-73
2021/12/24 18:40:12;;;;;;;1.50;0.93;;;13.20;83.80;;;;;;10497459;28;20056;-74
2021/12/24 18:45:13;;;;;;;1.58;1.25;;;13.20;83.70;;;;;;10497154;28;20106;-74
2021/12/24 18:50:15;;;;;;;2.25;1.02;;;13.20;83.80;;;;;;10496793;28;20048;-74
2021/12/24 18:55:18;;;;;;;2.03;1.15;;;13.20;83.70;;;;;;10496932;28;20044;-73
2021/12/24 19:00:19;;;;;;;2.38;1.30;;;13.20;83.70;;;;;;10496293;28;20052;-73
2021/12/24 19:05:21;;;;;;;1.42;0.90;;;13.20;83.70;;;;;;10496649;28;20045;-73
2021/12/24 19:10:22;;;;;;;1.13;0.80;;;13.20;83.60;;;;;;10496201;28;20127;-74
2021/12/24 19:15:24;;;;;;;1.10;0.80;;;13.20;83.60;;;;;;10496053;28;20523;-74
2021/12/24 19:20:25;;;;;;;1.70;0.80;;;13.20;83.60;;;;;;10495613;28;20056;-73
2021/12/24 19:25:27;;;;;;;1.02;0.77;;;13.10;83.50;;;;;;10495810;28;20053;-73
2021/12/24 19:30:28;;;;;;;1.42;0.93;;;13.20;83.50;;;;;;10495981;28;20048;-75
2021/12/24 19:35:30;;;;;;;1.17;0.85;;;13.20;83.40;;;;;;10495360;28;20413;-74
2021/12/24 19:40:32;;;;;;;0.70;0.70;;;13.10;83.40;;;;;;10495297;28;20512;-73
2021/12/24 19:45:33;;;;;;;1.30;0.95;;;13.10;83.30;;;;;;10495226;28;20044;-73
2021/12/24 19:50:35;;;;;;;0.98;0.75;;;13.10;83.30;;;;;;10495048;28;20052;-73
2021/12/24 19:55:36;;;;;;;1.38;0.90;;;13.10;83.30;;;;;;10495090;28;20048;-73
2021/12/24 20:00:38;;;;;;;1.30;0.90;;;13.10;83.10;;;;;;10494593;28;20432;-74
2021/12/24 20:05:40;;;;;;;1.30;0.80;;;13.10;83.10;;;;;;10495093;28;20044;-74
2021/12/24 20:10:42;;;;;;;0.95;0.70;;;13.10;83.10;;;;;;10494656;28;20045;-73
2021/12/24 20:15:43;;;;;;;1.13;0.70;;;13.10;83.00;;;;;;10494531;28;20056;-73
2021/12/24 20:20:45;;;;;;;1.35;0.80;;;13.10;83.00;;;;;;10494512;28;20155;-74
2021/12/24 20:25:46;;;;;;;0.95;0.63;;;13.10;82.90;;;;;;10494523;28;20424;-73
2021/12/24 20:30:48;;;;;;;0.95;0.70;;;13.10;82.80;;;;;;10494342;28;20409;-74
2021/12/24 20:35:49;;;;;;;1.15;0.70;;;13.10;82.80;;;;;;10495828;28;20408;-73
2021/12/24 20:40:51;;;;;;;1.35;0.60;;;13.10;82.70;;;;;;10502055;28;20056;-75
2021/12/24 20:45:52;;;;;;;1.05;0.68;;;13.10;82.70;;;;;;10501755;28;20044;-74
2021/12/24 20:50:54;;;;;;;1.33;0.57;;;13.10;82.60;;;;;;10501691;28;20045;-74
2021/12/24 20:55:56;;;;;;;0.85;0.60;;;13.10;82.50;;;;;;10501789;28;20048;-76
2021/12/24 21:00:58;;;;;;;1.63;0.80;;;13.00;82.30;;;;;;10501394;28;20262;-74
2021/12/24 21:05:59;;;;;;;0.95;0.43;;;13.00;82.30;;;;;;10501378;28;20054;-75
2021/12/24 21:11:01;;;;;;;1.30;0.50;;;13.10;82.30;;;;;;10500977;28;20048;-75
2021/12/24 21:16:02;;;;;;;1.67;0.50;;;13.00;82.20;;;;;;10500434;28;20448;-75
2021/12/24 21:21:04;;;;;;;1.42;0.55;;;13.00;82.10;;;;;;10500581;28;20520;-74
2021/12/24 21:26:05;;;;;;;0.80;0.55;;;13.00;82.00;;;;;;10500359;28;20044;-75
2021/12/24 21:31:07;;;;;;;0.90;0.70;;;13.00;82.00;;;;;;10500303;28;20049;-74
2021/12/24 21:36:08;;;;;;;1.05;0.57;;;13.00;81.90;;;;;;10500071;28;20048;-74
2021/12/24 21:41:10;;;;;;;0.85;0.50;;;13.00;81.90;;;;;;10500016;28;20060;-74
2021/12/24 21:46:11;;;;;;;1.30;0.50;;;13.00;81.80;;;;;;10499413;28;20051;-74
2021/12/24 21:51:13;;;;;;;0.93;0.60;;;13.00;81.80;;;;;;10499563;28;20059;-74
2021/12/24 21:56:14;;;;;;;0.85;0.55;;;13.00;81.80;;;;;;10499506;28;20045;-75
2021/12/24 22:01:16;;;;;;;0.75;0.40;;;13.00;81.70;;;;;;10498799;28;20060;-74
2021/12/24 22:11:42;;;;;;;0.85;0.40;;;12.90;81.50;;;;;;10498316;28;20036;-74
2021/12/24 22:16:43;;;;;;;1.20;0.50;;;13.00;81.50;;;;;;10498102;28;20044;-74
2021/12/24 22:21:54;;;;;;;1.27;0.43;;;12.90;81.30;;;;;;10498143;28;20045;-73
2021/12/24 22:26:56;;;;;;;0.80;0.47;;;12.90;81.30;;;;;;10498335;28;20049;-73
2021/12/24 22:31:57;;;;;;;0.43;0.20;;;12.90;81.20;;;;;;10497848;28;20045;-75
2021/12/24 22:36:59;;;;;;;2.25;0.70;;;12.90;81.10;;;;;;10497538;28;20055;-74
2021/12/24 22:42:00;;;;;;;0.80;0.40;;;12.90;81.10;;;;;;10497526;28;20052;-74
2021/12/24 22:47:02;;;;;;;1.08;0.40;;;12.90;81.00;;;;;;10496940;28;20041;-74
2021/12/24 22:52:11;;;;;;;1.10;0.50;;;12.90;81.00;;;;;;10496910;28;20048;-74
2021/12/24 22:57:13;;;;;;;1.30;0.47;;;12.90;80.90;;;;;;10497243;28;20131;-74
2021/12/24 23:02:15;;;;;;;1.08;0.45;;;12.90;80.90;;;;;;10496131;28;20079;-73
2021/12/24 23:07:17;;;;;;;0.77;0.40;;;12.90;80.80;;;;;;10496261;28;20515;-74
2021/12/24 23:12:18;;;;;;;1.63;0.60;;;12.90;80.70;;;;;;10495621;28;20268;-74
2021/12/24 23:17:25;;;;;;;0.90;0.30;;;12.90;80.70;;;;;;10495733;28;20115;-74
2021/12/24 23:22:26;;;;;;;1.27;0.32;;;12.90;80.60;;;;;;10495725;28;20159;-73
2021/12/24 23:27:28;;;;;;;0.65;0.30;;;12.90;80.50;;;;;;10495751;28;20067;-74
2021/12/24 23:32:29;;;;;;;0.80;0.30;;;12.90;80.50;;;;;;10495603;28;20135;-74
2021/12/24 23:37:31;;;;;;;0.70;0.30;;;12.80;80.40;;;;;;10495517;28;20459;-75
2021/12/24 23:42:34;;;;;;;1.13;0.50;;;12.80;80.30;;;;;;10495485;28;20053;-73
2021/12/24 23:47:38;;;;;;;0.75;0.32;;;12.80;80.20;;;;;;10495292;28;20535;-74
2021/12/24 23:52:44;;;;;;;0.82;0.30;;;12.80;80.20;;;;;;10495185;28;20462;-74
2021/12/24 23:57:46;;;;;;;0.75;0.30;;;12.80;80.20;;;;;;10495125;28;20543;-74
